Terminal Aerodrome Forecast
Issued by NWS Pueblo, CO

Home | Current Version | Previous Version | Text Only | Print | Product List | Glossary On
Versions: 1 2 3 4 5 6 7 8 9 10 11 12 13 14 15 16 17 18 19 20 21 22 23 24 25 26 27 28 29 30 31 32 33 34 35
000
FTUS45 KPUB 111316 AAA
TAFCOS
TAF AMD
KCOS 111316Z 1113/1212 32010G20KT P6SM SCT200
     FM111500 32008KT P6SM SCT200
     FM111800 17008KT P6SM SCT100 SCT200
     FM112100 13011KT P6SM VCTS SCT080CB BKN140
     FM120100 36012KT P6SM SCT100 BKN140=

USA.gov is the U.S. government's official web portal to all federal, state and local government web resources and services.